Terminal Aerodrome Forecast
Issued by NWS Caribou, ME

Home | Current Version | Previous Version | Text Only | Print | Product List | Glossary On
Versions: 1 2 3 4 5 6 7 8 9 10 11 12 13 14 15 16 17 18 19 20 21
000
FTUS41 KCAR 172320
TAFBGR
TAF
KBGR 172320Z 1800/1824 32006KT P6SM FEW120
     FM181400 15004KT P6SM BKN110
     FM181600 16005KT P6SM VCSH BKN050
     FM182000 15006KT 5SM -RA OVC035
     FM182100 15006KT 5SM -RA OVC003=

USA.gov is the U.S. government's official web portal to all federal, state and local government web resources and services.